Time;durP1;ratioP1;P1;durP2;ratioP2;P2;SDS_P1;SDS_P2;PMS_P1;PMS_P2;Temp;Humidity;BMP_temperature;BMP_pressure;BME280_temperature;BME280_humidity;BME280_pressure;Samples;Min_cycle;Max_cycle;Signal;HPM_P1;HPM_P2
2022/06/01 00:00:09;;;;;;;0.30;0.30;;;11.20;99.90;;;;;;5033400;28;20167;-70
2022/06/01 00:02:36;;;;;;;0.30;0.30;;;11.20;99.90;;;;;;5033807;28;20554;-70
2022/06/01 00:05:02;;;;;;;0.30;0.30;;;11.10;99.90;;;;;;5033532;28;20182;-69
2022/06/01 00:07:28;;;;;;;0.30;0.30;;;11.10;99.90;;;;;;5033493;28;20213;-70
2022/06/01 00:09:55;;;;;;;0.30;0.30;;;11.10;99.90;;;;;;5033596;28;20578;-70
2022/06/01 00:12:22;;;;;;;0.30;0.30;;;11.00;99.90;;;;;;5033131;28;20191;-70
2022/06/01 00:14:48;;;;;;;0.30;0.30;;;11.00;99.90;;;;;;5033296;28;20170;-69
2022/06/01 00:17:16;;;;;;;0.30;0.30;;;11.00;99.90;;;;;;5032134;28;20258;-69
2022/06/01 00:19:42;;;;;;;0.30;0.30;;;10.90;99.90;;;;;;5031865;28;20622;-70
2022/06/01 00:22:14;;;;;;;0.30;0.30;;;10.90;99.90;;;;;;5033057;28;20198;-69
2022/06/01 00:24:41;;;;;;;0.40;0.40;;;10.90;99.90;;;;;;5033407;28;20179;-69
2022/06/01 00:27:08;;;;;;;0.30;0.30;;;10.80;99.90;;;;;;5033134;28;20237;-70
2022/06/01 00:29:34;;;;;;;0.30;0.30;;;10.80;99.90;;;;;;5033421;28;20194;-69
2022/06/01 00:31:59;;;;;;;0.30;0.30;;;10.80;99.90;;;;;;5033226;28;20241;-70
2022/06/01 00:34:26;;;;;;;0.30;0.30;;;10.80;99.90;;;;;;5033290;28;20254;-69
2022/06/01 00:36:51;;;;;;;0.40;0.40;;;10.70;99.90;;;;;;5033284;28;20179;-70
2022/06/01 00:39:17;;;;;;;0.53;0.53;;;10.70;99.90;;;;;;5033074;28;20179;-71
2022/06/01 00:41:43;;;;;;;0.30;0.30;;;10.70;99.90;;;;;;5033060;28;20667;-70
2022/06/01 00:44:09;;;;;;;0.30;0.30;;;10.60;99.90;;;;;;5032974;28;20891;-70
2022/06/01 00:46:34;;;;;;;0.30;0.30;;;10.60;99.90;;;;;;5033071;28;20449;-70
2022/06/01 00:49:15;;;;;;;0.30;0.30;;;10.60;99.90;;;;;;5033169;28;20178;-70
2022/06/01 00:51:41;;;;;;;0.30;0.30;;;10.60;99.90;;;;;;5033050;28;20213;-71
2022/06/01 00:54:07;;;;;;;0.30;0.30;;;10.60;99.90;;;;;;5036619;28;20171;-69
2022/06/01 00:56:39;;;;;;;0.30;0.30;;;10.60;99.90;;;;;;5036916;28;20179;-69
2022/06/01 00:59:09;;;;;;;0.30;0.30;;;10.60;99.90;;;;;;5036934;28;20175;-70
2022/06/01 01:01:35;;;;;;;0.30;0.30;;;10.60;99.90;;;;;;5036927;28;20198;-70
2022/06/01 01:04:03;;;;;;;0.60;0.60;;;10.50;99.90;;;;;;5036453;28;20277;-70
2022/06/01 01:06:36;;;;;;;0.30;0.30;;;10.50;99.90;;;;;;5036659;28;20449;-69
2022/06/01 01:09:03;;;;;;;0.30;0.30;;;10.50;99.90;;;;;;5035343;28;20193;-70
2022/06/01 01:11:34;;;;;;;0.30;0.30;;;10.50;99.90;;;;;;5036453;28;20183;-69
2022/06/01 01:14:01;;;;;;;0.30;0.30;;;10.40;99.90;;;;;;5036503;28;20167;-70
2022/06/01 01:16:27;;;;;;;0.60;0.60;;;10.20;99.90;;;;;;5036526;28;20179;-69
2022/06/01 01:18:55;;;;;;;0.30;0.30;;;10.10;99.90;;;;;;5036319;28;20198;-69
2022/06/01 01:21:46;;;;;;;0.30;0.30;;;10.20;99.90;;;;;;5036329;28;20269;-70
2022/06/01 01:24:23;;;;;;;0.30;0.30;;;10.20;99.90;;;;;;5036170;28;20186;-69
2022/06/01 01:26:51;;;;;;;0.30;0.30;;;10.20;99.90;;;;;;5036301;28;20198;-70
2022/06/01 01:29:33;;;;;;;0.30;0.30;;;10.10;99.90;;;;;;5036284;28;20167;-70
2022/06/01 01:31:59;;;;;;;0.30;0.30;;;10.00;99.90;;;;;;5036031;28;20186;-69
2022/06/01 01:34:25;;;;;;;0.30;0.30;;;10.00;99.90;;;;;;5036422;28;20186;-70
2022/06/01 01:36:54;;;;;;;0.30;0.30;;;10.00;99.90;;;;;;5036118;28;20492;-69
2022/06/01 01:39:19;;;;;;;0.30;0.30;;;9.90;99.90;;;;;;5036113;28;20174;-70
2022/06/01 01:41:47;;;;;;;0.30;0.30;;;9.90;99.90;;;;;;5035974;28;20261;-69
2022/06/01 01:44:13;;;;;;;0.30;0.30;;;9.90;99.90;;;;;;5035696;28;20413;-69
2022/06/01 01:46:39;;;;;;;0.30;0.30;;;9.90;99.90;;;;;;5035787;28;20212;-69
2022/06/01 01:49:05;;;;;;;0.30;0.30;;;9.90;99.90;;;;;;5035856;28;20163;-70
2022/06/01 01:51:32;;;;;;;0.30;0.30;;;9.90;99.90;;;;;;5035638;28;20248;-69
2022/06/01 01:53:59;;;;;;;0.30;0.30;;;10.00;99.90;;;;;;5035668;28;20735;-70
2022/06/01 01:57:06;;;;;;;0.30;0.30;;;9.90;99.90;;;;;;5035778;28;20171;-69
2022/06/01 01:59:43;;;;;;;0.30;0.30;;;9.90;99.90;;;;;;5024699;28;20614;-70
2022/06/01 02:02:28;;;;;;;0.30;0.30;;;9.90;99.90;;;;;;5035413;28;20198;-69
2022/06/01 02:08:11;;;;;;;0.32;0.32;;;9.80;99.90;;;;;;5035615;28;20213;-70
2022/06/01 02:13:22;;;;;;;0.30;0.30;;;9.80;99.90;;;;;;5035243;28;20180;-69
2022/06/01 02:15:50;;;;;;;0.30;0.30;;;9.60;99.90;;;;;;5035516;28;20529;-70
2022/06/01 02:18:41;;;;;;;0.30;0.30;;;9.70;99.90;;;;;;5035286;28;20174;-69
2022/06/01 02:21:15;;;;;;;0.30;0.30;;;9.70;99.90;;;;;;5032313;28;20341;-70
2022/06/01 02:23:41;;;;;;;0.30;0.30;;;9.70;99.90;;;;;;5034961;28;20173;-70
2022/06/01 02:26:07;;;;;;;0.30;0.30;;;9.70;99.90;;;;;;5035202;28;20201;-71
2022/06/01 02:28:37;;;;;;;0.30;0.30;;;9.70;99.90;;;;;;5035037;28;20522;-70
2022/06/01 02:31:04;;;;;;;0.30;0.30;;;9.70;99.90;;;;;;5035080;28;20193;-70
2022/06/01 02:33:33;;;;;;;0.30;0.30;;;9.70;99.90;;;;;;5034792;28;20702;-70
2022/06/01 02:36:00;;;;;;;0.40;0.40;;;9.70;99.90;;;;;;5035012;28;20197;-69
2022/06/01 02:38:42;;;;;;;0.32;0.32;;;9.70;99.90;;;;;;5034958;28;20244;-69
2022/06/01 02:42:25;;;;;;;0.30;0.30;;;9.60;99.90;;;;;;5034884;28;20204;-70
2022/06/01 02:43:54;;;;;;;0.30;0.30;;;9.60;99.90;;;;;;5034423;28;20189;-70
2022/06/01 02:46:20;;;;;;;1.13;0.75;;;9.60;99.90;;;;;;5034750;28;20195;-70
2022/06/01 02:48:46;;;;;;;0.30;0.30;;;9.50;99.90;;;;;;5034900;28;20194;-69
2022/06/01 02:51:14;;;;;;;0.30;0.30;;;9.40;99.90;;;;;;5034546;28;20523;-69
2022/06/01 02:53:39;;;;;;;0.30;0.30;;;9.60;99.90;;;;;;5034612;28;20163;-70
2022/06/01 02:56:05;;;;;;;0.30;0.30;;;9.60;99.90;;;;;;5034743;28;20181;-70
2022/06/01 02:58:31;;;;;;;0.88;0.88;;;9.60;99.90;;;;;;5034430;28;20184;-69
2022/06/01 03:00:58;;;;;;;0.60;0.60;;;9.50;99.90;;;;;;5034558;28;20202;-69
2022/06/01 03:03:25;;;;;;;0.30;0.30;;;9.50;99.90;;;;;;5034279;28;20178;-70
2022/06/01 03:05:51;;;;;;;0.50;0.50;;;9.50;99.90;;;;;;5034482;28;20182;-69
2022/06/01 03:08:17;;;;;;;0.30;0.30;;;9.40;99.90;;;;;;5034402;28;20174;-70
2022/06/01 03:10:44;;;;;;;0.30;0.30;;;9.40;99.90;;;;;;5034246;28;20182;-70
2022/06/01 03:13:10;;;;;;;0.70;0.70;;;9.40;99.90;;;;;;5034074;28;20198;-70
2022/06/01 03:15:36;;;;;;;0.40;0.40;;;9.40;99.90;;;;;;5033706;28;20166;-70
2022/06/01 03:18:02;;;;;;;0.40;0.40;;;9.40;99.90;;;;;;5034078;28;20177;-70
2022/06/01 03:20:28;;;;;;;0.30;0.30;;;9.40;99.90;;;;;;5033982;28;20447;-69
2022/06/01 03:22:54;;;;;;;0.30;0.30;;;9.40;99.90;;;;;;5034035;28;20840;-70
2022/06/01 03:25:25;;;;;;;0.30;0.30;;;9.40;99.90;;;;;;5032873;28;20539;-69
2022/06/01 03:27:52;;;;;;;0.30;0.30;;;9.40;99.90;;;;;;5033955;28;20229;-70
2022/06/01 03:30:19;;;;;;;0.30;0.30;;;9.40;99.90;;;;;;5033991;28;20174;-69
2022/06/01 03:32:46;;;;;;;0.30;0.30;;;9.40;99.90;;;;;;5033762;28;20516;-70
2022/06/01 03:35:14;;;;;;;0.30;0.30;;;9.40;99.90;;;;;;5033882;28;20213;-71
2022/06/01 03:37:39;;;;;;;0.30;0.30;;;9.40;99.90;;;;;;5033937;28;20303;-69
2022/06/01 03:40:06;;;;;;;0.30;0.30;;;9.40;99.90;;;;;;5033890;28;20209;-69
2022/06/01 03:42:32;;;;;;;0.30;0.30;;;9.40;99.90;;;;;;5033505;28;20174;-69
2022/06/01 03:47:43;;;;;;;0.50;0.50;;;9.40;99.90;;;;;;5033905;28;20209;-69
2022/06/01 03:50:09;;;;;;;0.55;0.55;;;9.40;99.90;;;;;;5033505;28;20174;-70
2022/06/01 03:52:35;;;;;;;0.30;0.30;;;9.50;99.90;;;;;;5033475;28;20204;-70
2022/06/01 03:55:01;;;;;;;0.30;0.30;;;9.50;99.90;;;;;;5033734;28;20171;-70
2022/06/01 03:57:27;;;;;;;0.80;0.80;;;9.50;99.90;;;;;;5033484;28;20185;-69
2022/06/01 03:59:53;;;;;;;0.30;0.30;;;9.40;99.90;;;;;;5033595;28;20208;-70
2022/06/01 04:02:18;;;;;;;0.30;0.30;;;9.50;99.90;;;;;;5033250;28;20197;-70
2022/06/01 04:04:44;;;;;;;0.30;0.30;;;9.50;99.90;;;;;;5032252;28;20919;-69
2022/06/01 04:07:10;;;;;;;0.30;0.30;;;9.50;99.90;;;;;;5033525;28;20293;-69
2022/06/01 04:09:35;;;;;;;0.30;0.30;;;9.60;99.90;;;;;;5033561;28;20166;-70
2022/06/01 04:12:01;;;;;;;0.30;0.30;;;9.60;99.90;;;;;;5033392;28;20993;-70
2022/06/01 04:14:27;;;;;;;0.30;0.30;;;9.70;99.90;;;;;;5033461;28;20287;-69
2022/06/01 04:16:53;;;;;;;0.40;0.40;;;9.70;99.90;;;;;;5033754;28;20628;-69
2022/06/01 04:19:18;;;;;;;0.30;0.30;;;9.70;99.90;;;;;;5033155;28;20646;-70
2022/06/01 04:21:48;;;;;;;0.30;0.30;;;9.80;99.90;;;;;;5033376;28;20429;-70
2022/06/01 04:24:16;;;;;;;0.30;0.30;;;9.80;99.90;;;;;;5032997;28;20542;-70
2022/06/01 04:26:42;;;;;;;0.30;0.30;;;9.90;99.90;;;;;;5033157;28;20206;-69
2022/06/01 04:29:07;;;;;;;0.30;0.30;;;10.10;99.90;;;;;;5037299;28;20213;-69
2022/06/01 04:31:34;;;;;;;0.30;0.30;;;10.50;99.90;;;;;;5037155;28;20787;-70
2022/06/01 04:34:00;;;;;;;0.30;0.30;;;11.00;99.90;;;;;;5037068;28;20397;-70
2022/06/01 04:36:26;;;;;;;0.30;0.30;;;11.50;99.90;;;;;;5037837;28;20185;-70
2022/06/01 04:38:52;;;;;;;0.30;0.30;;;11.60;99.90;;;;;;5037256;28;20398;-70
2022/06/01 04:41:18;;;;;;;0.30;0.30;;;11.60;99.60;;;;;;5035731;28;20195;-69
2022/06/01 04:43:43;;;;;;;0.30;0.30;;;11.50;99.70;;;;;;5036963;28;20581;-70
2022/06/01 04:46:09;;;;;;;0.30;0.30;;;11.50;99.90;;;;;;5036882;28;20190;-70
2022/06/01 04:48:35;;;;;;;0.30;0.30;;;11.80;99.90;;;;;;5037078;28;20167;-70
2022/06/01 04:51:01;;;;;;;0.77;0.77;;;12.10;99.90;;;;;;5037024;28;20800;-70
2022/06/01 04:53:27;;;;;;;1.43;1.33;;;12.50;99.30;;;;;;5036665;28;20189;-70
2022/06/01 04:55:53;;;;;;;0.50;0.50;;;13.10;98.50;;;;;;5037264;28;20931;-71
2022/06/01 04:58:19;;;;;;;0.30;0.30;;;14.00;97.60;;;;;;5036908;28;20462;-69
2022/06/01 05:00:45;;;;;;;0.30;0.30;;;14.70;96.60;;;;;;5036817;28;20251;-70
2022/06/01 05:03:12;;;;;;;0.40;0.40;;;15.30;95.10;;;;;;5035388;28;20413;-69
2022/06/01 05:05:39;;;;;;;0.30;0.30;;;15.80;93.60;;;;;;5036787;28;20768;-69
2022/06/01 05:08:06;;;;;;;0.30;0.30;;;16.30;93.30;;;;;;5036629;28;20453;-69
2022/06/01 05:10:33;;;;;;;0.30;0.30;;;16.60;92.00;;;;;;5036483;28;20499;-69
2022/06/01 05:12:58;;;;;;;0.40;0.40;;;16.70;91.60;;;;;;5036581;28;20405;-69
2022/06/01 05:15:24;;;;;;;0.30;0.30;;;16.50;91.60;;;;;;5036610;28;20781;-69
2022/06/01 05:17:50;;;;;;;0.30;0.30;;;16.40;91.60;;;;;;5036594;28;20532;-70
2022/06/01 05:20:15;;;;;;;0.30;0.30;;;16.30;91.60;;;;;;5036474;28;20643;-70
2022/06/01 05:22:41;;;;;;;0.30;0.30;;;16.00;92.10;;;;;;5036257;28;20639;-69
2022/06/01 05:25:08;;;;;;;0.40;0.40;;;15.80;92.80;;;;;;5036525;28;20177;-71
2022/06/01 05:27:34;;;;;;;0.30;0.30;;;15.70;93.10;;;;;;5036165;28;20453;-70
2022/06/01 05:30:00;;;;;;;0.30;0.30;;;15.80;93.10;;;;;;5036147;28;20483;-70
2022/06/01 05:32:27;;;;;;;0.40;0.40;;;16.00;93.30;;;;;;5035922;28;20426;-70
2022/06/01 05:34:53;;;;;;;0.30;0.30;;;16.10;92.90;;;;;;5035045;28;20409;-70
2022/06/01 05:37:19;;;;;;;0.30;0.30;;;16.10;92.70;;;;;;5036239;28;20917;-69
2022/06/01 05:39:44;;;;;;;0.70;0.70;;;16.20;92.90;;;;;;5035701;28;20412;-70
2022/06/01 05:42:11;;;;;;;0.30;0.30;;;16.60;92.80;;;;;;5035800;28;20569;-70
2022/06/01 05:44:36;;;;;;;0.30;0.30;;;17.00;92.80;;;;;;5035917;28;20571;-69
2022/06/01 05:47:03;;;;;;;0.30;0.30;;;17.10;92.00;;;;;;5036058;28;20444;-70
2022/06/01 05:49:29;;;;;;;0.30;0.30;;;17.20;91.80;;;;;;5036007;28;20429;-70
2022/06/01 05:51:55;;;;;;;0.30;0.30;;;17.30;91.60;;;;;;5035905;28;20479;-69
2022/06/01 05:54:20;;;;;;;0.30;0.30;;;17.30;91.10;;;;;;5035630;28;20174;-70
2022/06/01 05:56:46;;;;;;;0.30;0.30;;;17.40;91.30;;;;;;5035858;28;20173;-70
2022/06/01 05:59:15;;;;;;;0.30;0.30;;;17.40;91.60;;;;;;5034751;28;20421;-70
2022/06/01 06:01:44;;;;;;;0.30;0.30;;;17.50;91.50;;;;;;5035835;28;20839;-71
2022/06/01 06:04:09;;;;;;;0.80;0.63;;;17.50;91.40;;;;;;5035027;28;20434;-70
2022/06/01 06:06:35;;;;;;;0.50;0.50;;;17.50;91.60;;;;;;5034151;28;20461;-74
2022/06/01 06:09:04;;;;;;;0.30;0.30;;;17.80;91.40;;;;;;5034062;28;20874;-71
2022/06/01 06:11:33;;;;;;;0.40;0.40;;;18.20;91.20;;;;;;5033357;28;20453;-71
2022/06/01 06:14:00;;;;;;;0.30;0.30;;;18.60;91.00;;;;;;5034754;28;20411;-72
2022/06/01 06:16:28;;;;;;;0.30;0.30;;;18.80;90.30;;;;;;5033967;28;20420;-73
2022/06/01 06:18:57;;;;;;;0.50;0.50;;;19.00;90.20;;;;;;5034207;28;20773;-73
2022/06/01 06:21:24;;;;;;;0.30;0.30;;;19.30;88.50;;;;;;5034849;28;20784;-73
2022/06/01 06:23:51;;;;;;;0.30;0.30;;;19.50;87.60;;;;;;5035151;28;20451;-73
2022/06/01 06:26:16;;;;;;;0.40;0.40;;;19.80;88.10;;;;;;5035153;28;20804;-72
2022/06/01 06:28:44;;;;;;;0.30;0.30;;;20.10;86.90;;;;;;5033874;28;20403;-72
2022/06/01 06:31:10;;;;;;;0.30;0.30;;;20.60;87.60;;;;;;5035210;28;20181;-72
2022/06/01 06:33:35;;;;;;;0.40;0.40;;;21.30;84.50;;;;;;5035184;28;20449;-72
2022/06/01 06:36:04;;;;;;;0.40;0.40;;;22.20;81.50;;;;;;5035014;28;20576;-73
2022/06/01 06:38:32;;;;;;;0.40;0.40;;;23.70;79.60;;;;;;5035184;28;20167;-73
2022/06/01 06:40:59;;;;;;;0.30;0.30;;;25.60;70.50;;;;;;5034900;28;20456;-71
2022/06/01 06:43:26;;;;;;;0.30;0.30;;;27.60;64.90;;;;;;5034681;28;20984;-73
2022/06/01 06:45:57;;;;;;;0.30;0.30;;;29.10;55.40;;;;;;5034537;28;20397;-73
2022/06/01 06:48:23;;;;;;;0.40;0.40;;;29.40;51.40;;;;;;5035013;28;20397;-74
2022/06/01 06:50:49;;;;;;;0.30;0.30;;;29.30;50.90;;;;;;5033825;28;20603;-73
2022/06/01 06:53:16;;;;;;;0.40;0.40;;;30.00;49.00;;;;;;5034680;28;20213;-72
2022/06/01 06:55:41;;;;;;;0.50;0.50;;;30.40;47.60;;;;;;5033464;28;20456;-72
2022/06/01 06:58:08;;;;;;;0.30;0.30;;;30.90;45.20;;;;;;5035296;28;20430;-72
2022/06/01 07:00:34;;;;;;;0.30;0.30;;;30.50;44.90;;;;;;5033944;28;20187;-71
2022/06/01 07:03:00;;;;;;;0.37;0.37;;;30.40;46.20;;;;;;5032172;28;20555;-72
2022/06/01 07:08:09;;;;;;;0.50;0.50;;;30.30;43.60;;;;;;5034568;28;20687;-72
2022/06/01 07:10:35;;;;;;;0.90;0.63;;;28.50;46.50;;;;;;5034325;28;20422;-72
2022/06/01 07:13:01;;;;;;;0.30;0.30;;;27.70;47.70;;;;;;5034374;28;20205;-71
2022/06/01 07:15:26;;;;;;;0.30;0.30;;;27.60;47.90;;;;;;5034728;28;20673;-71
2022/06/01 07:17:52;;;;;;;0.30;0.30;;;27.70;48.40;;;;;;5034411;28;20542;-72
2022/06/01 07:20:18;;;;;;;0.30;0.30;;;27.40;46.90;;;;;;5034159;28;20670;-71
2022/06/01 07:22:44;;;;;;;1.03;1.03;;;26.60;48.40;;;;;;5033953;28;20179;-71
2022/06/01 07:25:10;;;;;;;0.30;0.30;;;25.40;50.60;;;;;;5034216;28;20409;-71
2022/06/01 07:27:36;;;;;;;0.30;0.30;;;24.60;51.60;;;;;;5033881;28;20190;-71
2022/06/01 07:30:04;;;;;;;0.30;0.30;;;25.00;53.80;;;;;;5034006;28;20402;-72
2022/06/01 07:32:30;;;;;;;0.30;0.30;;;25.50;50.60;;;;;;5033953;28;20217;-72
2022/06/01 07:34:55;;;;;;;0.30;0.30;;;24.60;51.70;;;;;;5033962;28;20401;-69
2022/06/01 07:43:08;;;;;;;0.40;0.40;;;22.30;54.60;;;;;;5033899;28;20470;-70
2022/06/01 07:45:45;;;;;;;0.30;0.30;;;21.80;56.40;;;;;;5033902;28;20458;-70
2022/06/01 07:48:11;;;;;;;0.30;0.30;;;21.30;58.30;;;;;;5033871;28;20536;-70
2022/06/01 07:50:38;;;;;;;0.63;0.50;;;21.70;60.00;;;;;;5033739;28;20528;-70
2022/06/01 07:53:06;;;;;;;0.30;0.30;;;22.60;57.00;;;;;;5033445;28;20809;-70
2022/06/01 07:55:32;;;;;;;0.40;0.40;;;22.50;55.40;;;;;;5032376;28;20914;-70
2022/06/01 07:57:58;;;;;;;0.40;0.40;;;21.90;56.30;;;;;;5033681;28;20419;-71
2022/06/01 08:00:24;;;;;;;0.30;0.30;;;21.80;57.20;;;;;;5033592;28;20548;-71
2022/06/01 08:02:50;;;;;;;0.30;0.30;;;22.60;56.90;;;;;;5032193;28;20220;-70
2022/06/01 08:05:19;;;;;;;0.30;0.30;;;24.10;54.80;;;;;;5033642;28;20421;-70
2022/06/01 08:07:45;;;;;;;1.10;1.07;;;25.20;52.20;;;;;;5033378;28;20202;-71
2022/06/01 08:10:13;;;;;;;0.30;0.30;;;24.90;51.90;;;;;;5033565;28;20407;-71
2022/06/01 08:15:24;;;;;;;2.20;2.10;;;23.80;55.20;;;;;;5033739;28;20382;-71
2022/06/01 08:17:49;;;;;;;0.30;0.30;;;24.70;54.30;;;;;;5030731;28;20413;-71
2022/06/01 08:20:16;;;;;;;0.30;0.30;;;24.60;53.70;;;;;;5032292;28;20448;-72
2022/06/01 08:22:42;;;;;;;0.37;0.37;;;24.70;51.80;;;;;;5033291;28;20270;-72
2022/06/01 08:25:10;;;;;;;0.30;0.30;;;25.00;50.90;;;;;;5033420;28;20940;-71
2022/06/01 08:27:36;;;;;;;0.30;0.30;;;26.00;49.40;;;;;;5033327;28;20453;-71
2022/06/01 08:30:02;;;;;;;0.60;0.40;;;27.00;47.70;;;;;;5033378;28;20369;-72
2022/06/01 08:32:28;;;;;;;0.30;0.30;;;27.50;45.00;;;;;;5032996;28;20230;-71
2022/06/01 08:34:53;;;;;;;0.30;0.30;;;27.70;45.40;;;;;;5033249;28;20420;-73
2022/06/01 08:37:19;;;;;;;0.30;0.30;;;27.10;43.00;;;;;;5033415;28;20659;-72
2022/06/01 08:39:45;;;;;;;0.30;0.30;;;26.60;46.40;;;;;;5033280;28;20201;-72
2022/06/01 08:42:13;;;;;;;0.30;0.30;;;26.10;47.20;;;;;;5032913;28;20199;-72
2022/06/01 08:44:41;;;;;;;0.30;0.30;;;26.00;49.60;;;;;;5033239;28;20258;-72
2022/06/01 08:47:20;;;;;;;0.30;0.30;;;26.10;47.40;;;;;;5033054;28;20539;-72
2022/06/01 08:49:46;;;;;;;0.30;0.30;;;27.30;47.40;;;;;;5033185;28;20450;-72
2022/06/01 08:52:12;;;;;;;0.30;0.30;;;27.70;43.60;;;;;;5032858;28;20434;-72
2022/06/01 08:54:38;;;;;;;0.40;0.40;;;27.80;43.00;;;;;;5033424;28;20167;-71
2022/06/01 08:57:22;;;;;;;0.30;0.30;;;27.90;43.20;;;;;;5033184;28;20405;-72
2022/06/01 09:00:15;;;;;;;0.43;0.40;;;27.60;43.90;;;;;;5033079;28;20179;-71
2022/06/01 09:03:07;;;;;;;0.30;0.30;;;26.10;45.80;;;;;;5032907;28;20393;-72
2022/06/01 09:05:53;;;;;;;0.30;0.30;;;25.40;45.60;;;;;;5033128;28;20394;-71
2022/06/01 09:08:36;;;;;;;0.30;0.30;;;25.20;48.50;;;;;;5033337;28;20413;-71
2022/06/01 09:11:04;;;;;;;0.30;0.30;;;25.10;48.40;;;;;;5033077;28;20425;-71
2022/06/01 09:13:42;;;;;;;0.40;0.40;;;25.00;45.50;;;;;;5033964;28;20406;-71
2022/06/01 09:16:19;;;;;;;0.30;0.30;;;25.40;47.20;;;;;;5036683;28;20376;-72
2022/06/01 09:18:55;;;;;;;0.30;0.30;;;25.30;48.90;;;;;;5036682;28;20901;-71
2022/06/01 09:24:10;;;;;;;0.30;0.30;;;25.20;49.50;;;;;;5036676;28;20439;-72
2022/06/01 09:27:05;;;;;;;0.30;0.30;;;24.70;48.30;;;;;;5036619;28;20423;-71
2022/06/01 09:29:47;;;;;;;0.50;0.50;;;24.60;47.10;;;;;;5036229;28;20388;-72
2022/06/01 09:32:31;;;;;;;0.30;0.30;;;25.00;49.10;;;;;;5035983;28;20425;-71
2022/06/01 09:35:06;;;;;;;0.97;0.97;;;25.20;48.30;;;;;;5036573;28;20425;-72
2022/06/01 09:37:36;;;;;;;0.30;0.30;;;25.00;47.30;;;;;;5036159;28;20408;-72
2022/06/01 09:40:18;;;;;;;0.57;0.57;;;24.70;47.80;;;;;;5036097;28;20395;-71
2022/06/01 09:42:49;;;;;;;0.40;0.40;;;24.20;47.90;;;;;;5035862;28;20754;-71
2022/06/01 09:45:24;;;;;;;0.30;0.30;;;23.70;47.70;;;;;;5036107;28;20755;-71
2022/06/01 09:47:51;;;;;;;0.30;0.30;;;23.20;48.40;;;;;;5035866;28;20963;-71
2022/06/01 09:50:26;;;;;;;0.30;0.30;;;23.10;49.40;;;;;;5035835;28;20420;-71
2022/06/01 09:53:14;;;;;;;0.30;0.30;;;23.10;47.10;;;;;;5035700;28;20408;-72
2022/06/01 09:55:59;;;;;;;0.30;0.30;;;23.30;49.70;;;;;;5035732;28;20416;-72
2022/06/01 10:07:19;;;;;;;0.30;0.30;;;22.70;48.50;;;;;;5035791;28;20467;-70
2022/06/01 10:09:51;;;;;;;0.30;0.30;;;22.30;51.40;;;;;;5035729;28;20400;-70
2022/06/01 10:12:30;;;;;;;0.30;0.30;;;21.70;52.90;;;;;;5035393;28;20520;-69
2022/06/01 10:14:58;;;;;;;0.30;0.30;;;21.20;52.40;;;;;;5035591;28;20888;-69
2022/06/01 10:17:45;;;;;;;0.30;0.30;;;21.00;53.10;;;;;;5035459;28;20402;-70
2022/06/01 10:20:24;;;;;;;0.30;0.30;;;20.60;56.20;;;;;;5035136;28;20938;-70
2022/06/01 10:23:10;;;;;;;0.50;0.50;;;20.90;55.50;;;;;;5035277;28;20787;-70
2022/06/01 10:25:43;;;;;;;0.30;0.30;;;21.20;54.40;;;;;;5034578;28;20405;-70
2022/06/01 10:28:41;;;;;;;0.30;0.30;;;21.00;55.60;;;;;;5035314;28;20813;-69
2022/06/01 10:31:32;;;;;;;0.30;0.30;;;21.00;57.20;;;;;;5035060;28;20426;-70
2022/06/01 10:34:25;;;;;;;0.33;0.33;;;21.20;54.60;;;;;;5034909;28;20820;-70
2022/06/01 10:37:03;;;;;;;0.30;0.30;;;21.40;54.50;;;;;;5034005;28;20878;-73
2022/06/01 10:39:37;;;;;;;0.30;0.30;;;21.60;51.80;;;;;;5035076;28;20415;-73
2022/06/01 10:45:26;;;;;;;0.30;0.30;;;21.90;51.90;;;;;;5035506;28;20427;-71
2022/06/01 10:48:07;;;;;;;0.40;0.40;;;22.10;49.80;;;;;;5033452;28;20973;-72
2022/06/01 10:51:09;;;;;;;0.30;0.30;;;21.90;51.00;;;;;;5033673;28;20420;-71
2022/06/01 10:53:41;;;;;;;0.30;0.30;;;21.70;50.20;;;;;;5022562;28;20422;-72
2022/06/01 10:56:07;;;;;;;0.30;0.30;;;21.40;50.50;;;;;;5033847;28;20424;-74
2022/06/01 10:58:34;;;;;;;0.30;0.30;;;21.50;54.20;;;;;;5034738;28;20491;-72
2022/06/01 11:01:41;;;;;;;0.40;0.40;;;21.50;51.60;;;;;;5034736;28;20787;-71
2022/06/01 11:04:30;;;;;;;0.30;0.30;;;21.10;48.70;;;;;;5034982;28;20406;-70
2022/06/01 11:07:33;;;;;;;0.30;0.30;;;20.90;49.30;;;;;;5034599;28;20457;-71
2022/06/01 11:10:04;;;;;;;0.30;0.30;;;20.80;51.90;;;;;;5035036;28;20402;-73
2022/06/01 11:12:44;;;;;;;0.30;0.30;;;20.60;54.30;;;;;;5034537;28;20484;-72
2022/06/01 11:15:26;;;;;;;0.40;0.40;;;20.20;55.50;;;;;;5034640;28;20885;-72
2022/06/01 11:18:02;;;;;;;0.50;0.50;;;19.90;52.00;;;;;;5034555;28;20460;-73
2022/06/01 11:20:46;;;;;;;0.30;0.30;;;19.70;53.70;;;;;;5034458;28;20451;-71
2022/06/01 11:23:33;;;;;;;0.30;0.30;;;19.40;53.30;;;;;;5031229;28;20515;-71
2022/06/01 11:26:06;;;;;;;0.30;0.30;;;19.20;56.40;;;;;;5033792;28;20403;-73
2022/06/01 11:28:59;;;;;;;0.30;0.30;;;19.20;55.80;;;;;;5033147;28;20447;-72
2022/06/01 11:31:28;;;;;;;0.30;0.30;;;19.30;54.60;;;;;;5034239;28;20435;-72
2022/06/01 11:34:19;;;;;;;0.30;0.30;;;19.20;54.60;;;;;;5033935;28;20409;-71
2022/06/01 11:37:10;;;;;;;0.30;0.30;;;19.30;56.90;;;;;;5033764;28;20800;-74
2022/06/01 11:39:44;;;;;;;0.30;0.30;;;19.50;58.50;;;;;;5034508;28;20412;-70
2022/06/01 11:42:10;;;;;;;0.30;0.30;;;19.50;56.00;;;;;;5032839;28;20437;-73
2022/06/01 11:44:38;;;;;;;0.30;0.30;;;19.70;55.90;;;;;;5034079;28;20481;-70
2022/06/01 11:47:16;;;;;;;0.30;0.30;;;20.00;60.40;;;;;;5032907;28;20255;-72
2022/06/01 11:49:44;;;;;;;0.30;0.30;;;20.10;58.80;;;;;;5033911;28;20433;-71
2022/06/01 11:52:32;;;;;;;0.30;0.30;;;20.20;58.80;;;;;;5032803;28;20529;-72
2022/06/01 11:55:19;;;;;;;0.30;0.30;;;20.20;58.40;;;;;;5033959;28;20409;-72
2022/06/01 11:57:54;;;;;;;0.30;0.30;;;20.00;58.40;;;;;;5034076;28;20416;-71
2022/06/01 12:00:39;;;;;;;0.30;0.30;;;19.70;57.00;;;;;;5034165;28;20408;-71
2022/06/01 12:03:17;;;;;;;0.30;0.30;;;19.40;59.40;;;;;;5033555;28;20411;-71
2022/06/01 12:06:04;;;;;;;0.30;0.30;;;19.30;59.20;;;;;;5030679;28;20924;-71
2022/06/01 12:08:41;;;;;;;0.30;0.30;;;19.40;58.60;;;;;;5032322;28;20478;-71
2022/06/01 12:11:31;;;;;;;0.30;0.30;;;19.50;59.10;;;;;;5032643;28;20935;-73
2022/06/01 12:13:57;;;;;;;0.30;0.30;;;19.70;58.20;;;;;;5033606;28;20412;-71
2022/06/01 12:16:26;;;;;;;0.30;0.30;;;19.80;58.90;;;;;;5031836;28;20408;-71
2022/06/01 12:19:30;;;;;;;0.40;0.40;;;19.70;58.90;;;;;;5032298;28;20182;-72
2022/06/01 12:22:03;;;;;;;0.40;0.40;;;19.70;59.50;;;;;;5031357;28;20421;-73
2022/06/01 12:30:06;;;;;;;0.30;0.30;;;19.60;58.20;;;;;;5033491;28;20436;-70
2022/06/01 12:33:00;;;;;;;0.30;0.30;;;19.60;59.30;;;;;;5032394;28;20390;-71
2022/06/01 12:35:32;;;;;;;0.50;0.50;;;19.90;59.20;;;;;;5032425;28;20416;-71
2022/06/01 12:38:08;;;;;;;0.30;0.30;;;20.10;57.70;;;;;;5031551;28;20521;-71
2022/06/01 12:40:34;;;;;;;0.30;0.30;;;20.40;56.00;;;;;;5032411;28;20508;-72
2022/06/01 12:43:03;;;;;;;0.30;0.30;;;20.80;55.50;;;;;;5031719;28;20418;-73
2022/06/01 12:45:42;;;;;;;0.40;0.40;;;21.10;56.50;;;;;;5031041;28;20407;-72
2022/06/01 12:48:19;;;;;;;0.30;0.30;;;21.20;53.90;;;;;;5033129;28;20453;-71
2022/06/01 12:51:03;;;;;;;0.40;0.40;;;21.00;56.80;;;;;;5034767;28;20496;-73
2022/06/01 12:53:48;;;;;;;0.30;0.30;;;20.60;54.90;;;;;;5036794;28;20413;-73
2022/06/01 12:56:20;;;;;;;0.40;0.40;;;20.80;57.00;;;;;;5036907;28;20773;-71
2022/06/01 12:58:51;;;;;;;0.40;0.40;;;20.90;54.00;;;;;;5037036;28;20425;-73
2022/06/01 13:01:19;;;;;;;0.30;0.30;;;20.60;53.50;;;;;;5036308;28;20860;-72
2022/06/01 13:03:51;;;;;;;0.30;0.30;;;20.40;53.50;;;;;;5035233;28;20726;-73
2022/06/01 13:06:23;;;;;;;0.30;0.30;;;20.40;56.00;;;;;;5035602;28;20405;-72
2022/06/01 13:08:57;;;;;;;0.30;0.30;;;20.50;53.70;;;;;;5034834;28;20409;-72
2022/06/01 13:11:26;;;;;;;0.30;0.30;;;20.50;56.40;;;;;;5035110;28;20459;-73
2022/06/01 13:13:51;;;;;;;0.30;0.30;;;20.50;55.90;;;;;;5035095;28;20410;-72
2022/06/01 13:16:21;;;;;;;0.30;0.30;;;20.30;56.50;;;;;;5036501;28;20481;-73
2022/06/01 13:18:48;;;;;;;0.30;0.30;;;20.20;55.80;;;;;;5036349;28;20207;-71
2022/06/01 13:21:21;;;;;;;0.30;0.30;;;20.00;53.70;;;;;;5036426;28;20432;-72
2022/06/01 13:24:07;;;;;;;0.30;0.30;;;19.90;53.30;;;;;;5036270;28;20419;-71
2022/06/01 13:26:45;;;;;;;0.60;0.60;;;19.70;55.60;;;;;;5036188;28;20460;-73
2022/06/01 13:29:23;;;;;;;0.50;0.50;;;19.60;55.20;;;;;;5036365;28;20412;-72
2022/06/01 13:32:00;;;;;;;0.30;0.30;;;19.80;54.50;;;;;;5036331;28;20452;-71
2022/06/01 13:34:32;;;;;;;0.30;0.30;;;19.90;58.30;;;;;;5036192;28;20402;-74
2022/06/01 13:37:16;;;;;;;0.30;0.30;;;20.00;56.40;;;;;;5036156;28;20406;-72
2022/06/01 13:40:06;;;;;;;0.30;0.30;;;20.10;60.60;;;;;;5035147;28;20929;-73
2022/06/01 13:42:46;;;;;;;0.30;0.30;;;20.30;59.50;;;;;;5035836;28;20770;-73
2022/06/01 13:45:16;;;;;;;0.30;0.30;;;20.50;57.60;;;;;;5035180;28;20406;-73
2022/06/01 13:47:54;;;;;;;0.50;0.50;;;20.40;58.30;;;;;;5035971;28;20461;-73